createdAt,value
2019-02-22T00:01:40.078Z,7.76
2019-02-22T00:04:13.431Z,7.72
2019-02-22T00:06:46.029Z,7.71
2019-02-22T00:09:16.826Z,7.66
2019-02-22T00:11:47.818Z,7.65
2019-02-22T00:14:19.645Z,7.65
2019-02-22T00:16:50.552Z,7.62
2019-02-22T00:19:22.253Z,7.61
2019-02-22T00:21:53.470Z,7.58
2019-02-22T00:24:24.594Z,7.58
2019-02-22T00:26:55.886Z,7.55
2019-02-22T00:29:27.159Z,7.54
2019-02-22T00:31:58.509Z,7.52
2019-02-22T00:34:29.367Z,7.51
2019-02-22T00:37:00.536Z,7.48
2019-02-22T00:39:31.301Z,7.47
2019-02-22T00:42:02.245Z,7.47
2019-02-22T00:44:33.152Z,7.43
2019-02-22T00:47:04.374Z,7.40
2019-02-22T00:49:35.743Z,7.33
2019-02-22T00:52:07.083Z,7.21
2019-02-22T00:54:38.900Z,7.18
2019-02-22T00:57:09.448Z,7.10
2019-02-22T00:59:40.260Z,7.08
2019-02-22T01:02:11.682Z,7.00
2019-02-22T01:04:42.193Z,6.95
2019-02-22T01:07:13.902Z,6.92
2019-02-22T01:09:45.782Z,6.84
2019-02-22T01:12:17.055Z,6.51
2019-02-22T01:14:48.396Z,6.18
2019-02-22T01:17:19.443Z,5.98
2019-02-22T01:19:50.436Z,5.72
2019-02-22T01:22:21.835Z,5.64
2019-02-22T01:24:53.118Z,5.38
2019-02-22T01:27:24.135Z,5.31
2019-02-22T01:29:55.342Z,5.12
2019-02-22T01:32:26.874Z,4.89
2019-02-22T01:35:01.113Z,4.72
2019-02-22T01:37:33.432Z,4.54
2019-02-22T01:40:05.766Z,4.41
2019-02-22T01:42:36.841Z,4.13
2019-02-22T01:45:08.310Z,3.95
2019-02-22T01:47:39.559Z,3.86
2019-02-22T01:50:13.336Z,3.76
2019-02-22T01:52:44.309Z,3.73
2019-02-22T01:55:15.220Z,3.63
2019-02-22T01:57:46.186Z,3.52
2019-02-22T02:00:17.294Z,3.33
2019-02-22T02:02:48.363Z,3.18
2019-02-22T02:05:19.859Z,3.17
2019-02-22T02:07:50.885Z,3.10
2019-02-22T02:10:22.093Z,3.02
2019-02-22T02:12:53.137Z,2.93
2019-02-22T02:15:24.821Z,2.88
2019-02-22T02:17:55.831Z,2.89
2019-02-22T02:20:27.020Z,2.81
2019-02-22T02:22:58.454Z,2.88
2019-02-22T02:25:29.663Z,2.91
2019-02-22T02:28:00.582Z,2.89
2019-02-22T02:30:32.889Z,2.85
2019-02-22T02:33:04.493Z,2.80
2019-02-22T02:35:36.009Z,2.76
2019-02-22T02:38:06.989Z,2.71
2019-02-22T02:40:38.205Z,2.69
2019-02-22T02:43:09.638Z,2.74
2019-02-22T02:45:40.883Z,2.72
2019-02-22T02:48:12.030Z,2.76
2019-02-22T02:50:43.057Z,2.75
2019-02-22T02:53:14.189Z,2.65
2019-02-22T02:55:45.236Z,2.63
2019-02-22T02:58:15.837Z,2.47
2019-02-22T03:00:46.863Z,2.42
2019-02-22T03:03:18.705Z,2.41
2019-02-22T03:05:51.651Z,2.40
2019-02-22T03:08:24.014Z,2.42
2019-02-22T03:10:54.923Z,2.43
2019-02-22T03:13:26.557Z,2.37
2019-02-22T03:15:57.430Z,2.37
2019-02-22T03:18:27.885Z,2.34
2019-02-22T03:20:59.762Z,2.32
2019-02-22T03:23:30.643Z,2.30
2019-02-22T03:26:01.631Z,2.34
2019-02-22T03:28:33.110Z,2.27
2019-02-22T03:31:04.826Z,2.20
2019-02-22T03:33:35.834Z,2.16
2019-02-22T03:36:06.905Z,2.16
2019-02-22T03:38:38.120Z,2.12
2019-02-22T03:41:09.369Z,2.16
2019-02-22T03:43:41.292Z,2.09
2019-02-22T03:46:12.202Z,2.04
2019-02-22T03:48:43.425Z,2.02
2019-02-22T03:51:14.884Z,2.02
2019-02-22T03:53:47.314Z,2.01
2019-02-22T03:56:18.874Z,1.89
2019-02-22T03:58:50.017Z,1.86
2019-02-22T04:01:21.070Z,1.85
2019-02-22T04:03:51.906Z,1.83
2019-02-22T04:06:22.463Z,1.83
2019-02-22T04:08:54.628Z,1.84
2019-02-22T04:11:25.821Z,1.83
2019-02-22T04:13:56.668Z,1.78
2019-02-22T04:16:27.979Z,1.67
2019-02-22T04:18:59.751Z,1.67
2019-02-22T04:21:30.279Z,1.62
2019-02-22T04:24:01.356Z,1.61
2019-02-22T04:26:32.143Z,1.58
2019-02-22T04:29:03.179Z,1.54
2019-02-22T04:31:33.864Z,1.45
2019-02-22T04:34:05.383Z,1.46
2019-02-22T04:36:36.082Z,1.29
2019-02-22T04:39:08.239Z,1.39
2019-02-22T04:41:39.019Z,1.30
2019-02-22T04:44:10.081Z,1.27
2019-02-22T04:46:40.983Z,1.23
2019-02-22T04:49:12.613Z,1.09
2019-02-22T04:51:43.730Z,1.08
2019-02-22T04:54:14.912Z,1.05
2019-02-22T04:56:46.464Z,1.05
2019-02-22T04:59:17.749Z,0.98
2019-02-22T05:01:48.573Z,1.02
2019-02-22T05:04:19.754Z,1.00
2019-02-22T05:06:50.768Z,1.00
2019-02-22T05:09:22.070Z,0.86
2019-02-22T05:11:53.144Z,0.85
2019-02-22T05:14:24.426Z,0.82
2019-02-22T05:16:55.509Z,0.73
2019-02-22T05:19:26.337Z,0.62
2019-02-22T05:21:57.261Z,0.68
2019-02-22T05:24:28.612Z,0.67
2019-02-22T05:26:59.683Z,0.61
2019-02-22T05:29:30.623Z,0.61
2019-02-22T05:32:01.502Z,0.52
2019-02-22T05:34:32.452Z,0.48
2019-02-22T05:37:03.442Z,0.54
2019-02-22T05:39:34.665Z,0.55
2019-02-22T05:42:06.096Z,0.39
2019-02-22T05:44:37.417Z,0.54
2019-02-22T05:47:08.573Z,0.54
2019-02-22T05:49:39.303Z,0.51
2019-02-22T05:52:10.659Z,0.51
2019-02-22T05:54:42.053Z,0.49
2019-02-22T05:57:14.284Z,0.49
2019-02-22T05:59:46.185Z,0.45
2019-02-22T06:02:17.081Z,0.44
2019-02-22T06:04:48.459Z,0.37
2019-02-22T06:07:19.648Z,0.33
2019-02-22T06:09:52.190Z,0.29
2019-02-22T06:12:33.910Z,0.30
2019-02-22T06:14:56.042Z,0.22
2019-02-22T06:17:27.345Z,0.09
2019-02-22T06:19:58.954Z,0.09
2019-02-22T06:22:30.276Z,-0.01
2019-02-22T06:25:01.838Z,-0.06
2019-02-22T06:27:32.633Z,-0.06
2019-02-22T06:30:04.280Z,0.04
2019-02-22T06:32:35.544Z,0.05
2019-02-22T06:35:08.947Z,0.11
2019-02-22T06:37:40.413Z,-0.08
2019-02-22T06:40:11.379Z,0.06
2019-02-22T06:42:46.012Z,-0.11
2019-02-22T06:45:16.976Z,-0.04
2019-02-22T06:47:48.121Z,0.06
2019-02-22T06:50:19.206Z,0.04
2019-02-22T06:52:49.862Z,-0.06
2019-02-22T06:55:21.013Z,-0.01
2019-02-22T06:57:52.309Z,-0.14
2019-02-22T07:00:23.993Z,-0.17
2019-02-22T07:02:55.544Z,-0.11
2019-02-22T07:05:26.664Z,-0.05
2019-02-22T07:07:57.799Z,-0.12
2019-02-22T07:10:30.788Z,-0.13
2019-02-22T07:13:03.677Z,-0.13
2019-02-22T07:15:35.264Z,-0.26
2019-02-22T07:18:06.295Z,-0.28
2019-02-22T07:20:37.482Z,-0.27
2019-02-22T07:23:08.263Z,-0.35
2019-02-22T07:25:39.621Z,-0.47
2019-02-22T07:28:11.142Z,-0.40
2019-02-22T07:30:42.282Z,-0.38
2019-02-22T07:33:13.570Z,-0.46
2019-02-22T07:35:45.261Z,-0.52
2019-02-22T07:38:16.724Z,-0.47
2019-02-22T07:40:48.407Z,-0.49
2019-02-22T07:43:19.902Z,-0.43
2019-02-22T07:45:51.068Z,-0.49
2019-02-22T07:48:22.221Z,-0.45
2019-02-22T07:50:57.631Z,-0.41
2019-02-22T07:53:26.709Z,-0.39
2019-02-22T07:55:57.712Z,-0.39
2019-02-22T07:58:29.104Z,-0.35
2019-02-22T08:01:00.831Z,-0.32
2019-02-22T08:03:32.167Z,-0.22
2019-02-22T08:06:03.360Z,-0.20
2019-02-22T08:08:34.405Z,-0.26
2019-02-22T08:11:05.683Z,-0.27
2019-02-22T08:13:37.106Z,-0.30
2019-02-22T08:16:08.018Z,-0.20
2019-02-22T08:18:40.015Z,-0.14
2019-02-22T08:21:11.605Z,-0.12
2019-02-22T08:23:42.857Z,-0.05
2019-02-22T08:26:14.450Z,0.01
2019-02-22T08:28:45.920Z,0.06
2019-02-22T08:31:17.243Z,0.05
2019-02-22T08:33:49.395Z,0.08
2019-02-22T08:36:20.806Z,0.09
2019-02-22T08:38:51.870Z,0.15
2019-02-22T08:41:23.184Z,0.10
2019-02-22T08:43:54.726Z,0.04
2019-02-22T08:46:26.410Z,0.09
2019-02-22T08:48:58.759Z,0.05
2019-02-22T08:51:29.950Z,0.20
2019-02-22T08:54:01.784Z,0.31
2019-02-22T08:56:33.287Z,0.29
2019-02-22T08:59:05.804Z,0.25
2019-02-22T09:01:36.777Z,0.26
2019-02-22T09:04:09.620Z,0.33
2019-02-22T09:06:40.890Z,0.14
2019-02-22T09:09:12.102Z,0.14
2019-02-22T09:11:44.520Z,0.22
2019-02-22T09:14:16.105Z,0.30
2019-02-22T09:16:47.372Z,0.30
2019-02-22T09:19:18.510Z,0.36
2019-02-22T09:21:49.431Z,0.25
2019-02-22T09:24:20.614Z,0.32
2019-02-22T09:26:51.288Z,0.32
2019-02-22T09:29:22.593Z,0.29
2019-02-22T09:31:54.013Z,0.42
2019-02-22T09:34:25.840Z,0.55
2019-02-22T09:36:57.818Z,0.53
2019-02-22T09:39:29.400Z,0.52
2019-02-22T09:42:01.052Z,0.57
2019-02-22T09:44:33.121Z,0.53
2019-02-22T09:47:04.974Z,0.67
2019-02-22T09:49:36.262Z,0.75
2019-02-22T09:52:07.239Z,0.73
2019-02-22T09:54:38.509Z,0.86
2019-02-22T09:57:10.206Z,0.86
2019-02-22T09:59:41.195Z,0.91
2019-02-22T10:02:12.715Z,0.84
2019-02-22T10:04:54.634Z,0.86
2019-02-22T10:07:17.361Z,0.94
2019-02-22T10:09:48.680Z,0.92
2019-02-22T10:12:20.458Z,1.07
2019-02-22T10:14:52.408Z,1.07
2019-02-22T10:17:24.223Z,1.05
2019-02-22T10:19:55.426Z,1.01
2019-02-22T10:22:27.038Z,0.95
2019-02-22T10:24:58.620Z,1.04
2019-02-22T10:27:30.349Z,0.96
2019-02-22T10:30:01.414Z,0.96
2019-02-22T10:32:32.960Z,1.07
2019-02-22T10:35:04.666Z,0.86
2019-02-22T10:37:35.589Z,0.86
2019-02-22T10:40:08.781Z,1.10
2019-02-22T10:42:39.979Z,1.08
2019-02-22T10:45:12.113Z,1.17
2019-02-22T10:47:43.544Z,1.28
2019-02-22T10:50:15.900Z,1.11
2019-02-22T10:52:46.654Z,1.11
2019-02-22T10:55:18.025Z,1.38
2019-02-22T10:57:49.750Z,1.57
2019-02-22T11:00:21.385Z,1.52
2019-02-22T11:02:52.678Z,1.36
2019-02-22T11:05:24.438Z,1.39
2019-02-22T11:07:55.517Z,1.43
2019-02-22T11:10:27.095Z,1.56
2019-02-22T11:12:58.363Z,1.52
2019-02-22T11:15:30.114Z,1.50
2019-02-22T11:18:01.093Z,1.59
2019-02-22T11:20:32.478Z,1.76
2019-02-22T11:23:03.365Z,1.68
2019-02-22T11:25:34.504Z,1.68
2019-02-22T11:28:05.887Z,1.71
2019-02-22T11:30:37.397Z,1.75
2019-02-22T11:33:09.179Z,1.76
2019-02-22T11:35:40.686Z,1.89
2019-02-22T11:38:12.218Z,2.04
2019-02-22T11:40:43.437Z,2.01
2019-02-22T11:43:14.955Z,1.95
2019-02-22T11:45:46.430Z,1.97
2019-02-22T11:48:18.159Z,1.94
2019-02-22T11:50:49.866Z,1.99
2019-02-22T11:53:21.291Z,1.89
2019-02-22T11:55:53.005Z,2.09
2019-02-22T11:58:24.762Z,2.21
2019-02-22T12:00:56.668Z,2.06
2019-02-22T12:03:28.101Z,2.22
2019-02-22T12:05:59.259Z,2.31
2019-02-22T12:08:30.374Z,2.42
2019-02-22T12:11:01.588Z,2.30
2019-02-22T12:13:33.557Z,2.11
2019-02-22T12:16:04.559Z,2.10
2019-02-22T12:18:36.959Z,2.25
2019-02-22T12:21:13.658Z,1.99
2019-02-22T12:23:53.047Z,1.91
2019-02-22T12:26:24.983Z,2.08
2019-02-22T12:28:55.709Z,1.92
2019-02-22T12:31:27.461Z,2.08
2019-02-22T12:33:58.707Z,2.01
2019-02-22T12:36:30.630Z,1.91
2019-02-22T12:39:02.191Z,1.93
2019-02-22T12:41:35.626Z,1.86
2019-02-22T12:44:06.795Z,2.08
2019-02-22T12:46:39.548Z,2.08
2019-02-22T12:49:13.510Z,2.16
2019-02-22T12:51:49.288Z,2.07
2019-02-22T12:54:22.631Z,2.00
2019-02-22T12:56:57.526Z,1.96
2019-02-22T12:59:28.163Z,2.15
2019-02-22T13:02:01.472Z,2.12
2019-02-22T13:04:32.984Z,1.98
2019-02-22T13:07:04.176Z,1.97
2019-02-22T13:09:36.916Z,1.96
2019-02-22T13:12:14.020Z,2.05
2019-02-22T13:14:40.483Z,1.93
2019-02-22T13:17:11.568Z,1.82
2019-02-22T13:19:42.704Z,1.77
2019-02-22T13:22:13.155Z,1.74
2019-02-22T13:24:43.948Z,1.78
2019-02-22T13:27:14.365Z,1.78
2019-02-22T13:29:44.912Z,1.77
2019-02-22T13:32:15.354Z,1.67
2019-02-22T13:34:46.201Z,1.69
2019-02-22T13:37:16.712Z,1.71
2019-02-22T13:39:47.277Z,1.76
2019-02-22T13:42:17.531Z,1.69
2019-02-22T13:44:48.110Z,1.70
2019-02-22T13:47:18.380Z,1.69
2019-02-22T13:49:48.623Z,1.64
2019-02-22T13:52:18.909Z,1.67
2019-02-22T13:54:49.286Z,1.41
2019-02-22T13:57:20.407Z,1.58
2019-02-22T13:59:50.710Z,1.56
2019-02-22T14:02:20.969Z,1.60
2019-02-22T14:04:51.293Z,1.50
2019-02-22T14:07:21.545Z,1.59
2019-02-22T14:09:51.827Z,1.53
2019-02-22T14:12:22.132Z,1.47
2019-02-22T14:14:52.769Z,1.49
2019-02-22T14:17:23.692Z,1.49
2019-02-22T14:19:54.019Z,1.46
2019-02-22T14:22:24.253Z,1.25
2019-02-22T14:24:54.590Z,1.22
2019-02-22T14:27:24.912Z,1.28
2019-02-22T14:29:55.200Z,1.38
2019-02-22T14:32:25.468Z,1.36
2019-02-22T14:34:55.808Z,1.28
2019-02-22T14:37:28.066Z,1.22
2019-02-22T14:40:03.337Z,1.22
2019-02-22T14:42:42.972Z,1.14
2019-02-22T14:45:16.450Z,1.10
2019-02-22T14:47:47.563Z,1.13
2019-02-22T14:50:23.343Z,1.06
2019-02-22T14:52:55.957Z,1.02
2019-02-22T14:55:26.578Z,1.04
2019-02-22T14:57:58.526Z,1.00
2019-02-22T15:00:29.896Z,0.93
2019-02-22T15:03:01.773Z,0.93
2019-02-22T15:05:33.904Z,0.86
2019-02-22T15:08:05.025Z,0.78
2019-02-22T15:10:35.734Z,0.78
2019-02-22T15:13:07.979Z,0.77
2019-02-22T15:15:41.463Z,0.56
2019-02-22T15:18:15.094Z,0.63
2019-02-22T15:20:47.177Z,0.63
2019-02-22T15:23:20.469Z,0.69
2019-02-22T15:25:51.947Z,0.69
2019-02-22T15:28:23.147Z,0.58
2019-02-22T15:30:55.761Z,0.58
2019-02-22T15:33:27.708Z,0.31
2019-02-22T15:35:59.173Z,0.31
2019-02-22T15:38:31.011Z,0.39
2019-02-22T15:41:02.447Z,0.25
2019-02-22T15:43:33.490Z,0.30
2019-02-22T15:46:12.252Z,0.27
2019-02-22T15:48:37.009Z,0.20
2019-02-22T15:51:08.555Z,0.16
2019-02-22T15:53:39.778Z,0.15
2019-02-22T15:56:10.667Z,0.09
2019-02-22T15:58:42.467Z,0.03
2019-02-22T16:01:14.522Z,-0.02
2019-02-22T16:03:47.571Z,-0.05
2019-02-22T16:06:19.447Z,-0.13
2019-02-22T16:08:51.384Z,-0.21
2019-02-22T16:11:28.346Z,-0.23
2019-02-22T16:14:07.089Z,-0.27
2019-02-22T16:16:39.252Z,-0.29
2019-02-22T16:19:33.407Z,-0.30
2019-02-22T16:22:14.871Z,-0.31
2019-02-22T16:24:46.286Z,-0.38
2019-02-22T16:27:17.323Z,-0.37
2019-02-22T16:29:52.922Z,-0.35
2019-02-22T16:32:38.491Z,-0.33
2019-02-22T16:35:19.761Z,-0.36
2019-02-22T16:37:55.593Z,-0.42
2019-02-22T16:40:30.879Z,-0.49
2019-02-22T16:43:01.726Z,-0.52
2019-02-22T16:45:32.642Z,-0.55
2019-02-22T16:48:03.360Z,-0.61
2019-02-22T16:50:34.815Z,-0.53
2019-02-22T16:53:06.045Z,-0.53
2019-02-22T16:55:36.801Z,-0.54
2019-02-22T16:58:07.633Z,-0.61
2019-02-22T17:00:38.362Z,-0.58
2019-02-22T17:03:10.203Z,-0.60
2019-02-22T17:05:40.961Z,-0.55
2019-02-22T17:08:11.760Z,-0.58
2019-02-22T17:10:42.681Z,-0.61
2019-02-22T17:13:13.092Z,-0.60
2019-02-22T17:15:43.601Z,-0.61
2019-02-22T17:18:14.585Z,-0.60
2019-02-22T17:20:45.409Z,-0.60
2019-02-22T17:23:16.011Z,-0.63
2019-02-22T17:25:47.401Z,-0.64
2019-02-22T17:28:18.161Z,-0.63
2019-02-22T17:30:48.520Z,-0.66
2019-02-22T17:33:19.239Z,-0.73
2019-02-22T17:35:49.738Z,-0.77
2019-02-22T17:38:20.218Z,-0.85
2019-02-22T17:40:53.633Z,-0.85
2019-02-22T17:43:24.320Z,-0.87
2019-02-22T17:45:54.813Z,-0.97
2019-02-22T17:48:28.923Z,-0.91
2019-02-22T17:51:01.031Z,-0.96
2019-02-22T17:53:31.641Z,-0.99
2019-02-22T17:56:02.044Z,-1.08
2019-02-22T17:58:33.909Z,-1.13
2019-02-22T18:01:04.920Z,-1.09
2019-02-22T18:03:35.361Z,-1.08
2019-02-22T18:06:05.929Z,-1.02
2019-02-22T18:08:36.431Z,-1.08
2019-02-22T18:11:06.954Z,-1.07
2019-02-22T18:13:37.411Z,-1.06
2019-02-22T18:16:08.261Z,-1.11
2019-02-22T18:18:39.272Z,-1.13
2019-02-22T18:21:09.887Z,-1.11
2019-02-22T18:23:40.272Z,-1.27
2019-02-22T18:26:10.862Z,-1.30
2019-02-22T18:28:41.312Z,-1.33
2019-02-22T18:31:11.711Z,-1.29
2019-02-22T18:33:42.239Z,-1.30
2019-02-22T18:36:12.611Z,-1.31
2019-02-22T18:38:43.023Z,-1.32
2019-02-22T18:41:13.922Z,-1.33
2019-02-22T18:43:44.375Z,-1.26
2019-02-22T18:46:14.839Z,-1.34
2019-02-22T18:48:45.401Z,-1.39
2019-02-22T18:51:15.888Z,-1.35
2019-02-22T18:53:46.337Z,-1.39
2019-02-22T18:56:16.785Z,-1.40
2019-02-22T18:58:47.105Z,-1.41
2019-02-22T19:01:17.489Z,-1.42
2019-02-22T19:03:48.124Z,-1.42
2019-02-22T19:06:18.800Z,-1.44
2019-02-22T19:08:49.355Z,-1.52
2019-02-22T19:11:19.929Z,-1.55
2019-02-22T19:13:51.569Z,-1.56
2019-02-22T19:16:22.000Z,-1.58
2019-02-22T19:18:52.753Z,-1.61
2019-02-22T19:21:23.461Z,-1.65
2019-02-22T19:23:54.240Z,-1.71
2019-02-22T19:26:24.689Z,-1.78
2019-02-22T19:28:55.273Z,-1.77
2019-02-22T19:31:25.977Z,-1.76
2019-02-22T19:33:56.307Z,-1.81
2019-02-22T19:36:26.681Z,-1.83
2019-02-22T19:38:57.127Z,-1.86
2019-02-22T19:41:27.649Z,-1.87
2019-02-22T19:43:58.261Z,-1.91
2019-02-22T19:46:28.896Z,-1.86
2019-02-22T19:48:59.385Z,-1.96
2019-02-22T19:51:29.850Z,-1.96
2019-02-22T19:54:00.742Z,-1.98
2019-02-22T19:56:34.251Z,-2.03
2019-02-22T19:59:09.969Z,-2.10
2019-02-22T20:01:40.464Z,-2.14
2019-02-22T20:04:11.644Z,-2.14
2019-02-22T20:06:42.303Z,-2.21
2019-02-22T20:09:13.817Z,-2.23
2019-02-22T20:11:48.159Z,-2.27
2019-02-22T20:14:18.422Z,-2.27
2019-02-22T20:16:48.794Z,-2.39
2019-02-22T20:19:21.209Z,-2.43
2019-02-22T20:21:58.193Z,-2.48
2019-02-22T20:24:29.784Z,-2.47
2019-02-22T20:27:02.055Z,-2.49
2019-02-22T20:29:33.042Z,-2.54
2019-02-22T20:32:03.956Z,-2.58
2019-02-22T20:34:40.343Z,-2.59
2019-02-22T20:37:12.884Z,-2.61
2019-02-22T20:39:43.373Z,-2.54
2019-02-22T20:42:13.811Z,-2.52
2019-02-22T20:44:44.201Z,-2.57
2019-02-22T20:47:14.528Z,-2.66
2019-02-22T20:49:44.811Z,-2.73
2019-02-22T20:52:15.219Z,-2.73
2019-02-22T20:54:45.761Z,-2.77
2019-02-22T20:57:18.613Z,-2.84
2019-02-22T20:59:51.003Z,-2.80
2019-02-22T21:02:22.007Z,-2.85
2019-02-22T21:04:54.896Z,-2.94
2019-02-22T21:07:25.872Z,-3.01
2019-02-22T21:09:56.337Z,-3.02
2019-02-22T21:12:29.567Z,-3.01
2019-02-22T21:14:59.944Z,-2.99
2019-02-22T21:17:30.905Z,-2.96
2019-02-22T21:20:02.639Z,-3.03
2019-02-22T21:22:33.144Z,-3.09
2019-02-22T21:25:03.593Z,-3.14
2019-02-22T21:27:34.032Z,-3.14
2019-02-22T21:30:05.962Z,-3.14
2019-02-22T21:32:36.312Z,-3.15
2019-02-22T21:35:07.979Z,-3.16
2019-02-22T21:37:39.276Z,-3.15
2019-02-22T21:40:10.916Z,-3.14
2019-02-22T21:42:41.178Z,-3.17
2019-02-22T21:45:14.180Z,-3.23
2019-02-22T21:47:54.383Z,-3.28
2019-02-22T21:50:17.854Z,-3.38
2019-02-22T21:52:48.148Z,-3.35
2019-02-22T21:55:18.435Z,-3.38
2019-02-22T21:57:48.906Z,-3.46
2019-02-22T22:00:21.741Z,-3.51
2019-02-22T22:02:52.106Z,-3.50
2019-02-22T22:05:22.491Z,-3.51
2019-02-22T22:07:52.815Z,-3.56
2019-02-22T22:10:23.124Z,-3.64
2019-02-22T22:12:53.550Z,-3.66
2019-02-22T22:15:23.856Z,-3.72
2019-02-22T22:17:54.234Z,-3.81
2019-02-22T22:20:24.520Z,-3.87
2019-02-22T22:22:55.884Z,-3.84
2019-02-22T22:25:26.170Z,-3.87
2019-02-22T22:27:56.529Z,-3.93
2019-02-22T22:30:26.986Z,-3.95
2019-02-22T22:32:57.344Z,-4.02
2019-02-22T22:35:27.789Z,-4.09
2019-02-22T22:37:58.562Z,-4.05
2019-02-22T22:40:28.916Z,-4.09
2019-02-22T22:42:59.198Z,-4.15
2019-02-22T22:45:30.142Z,-4.18
2019-02-22T22:48:01.033Z,-4.20
2019-02-22T22:50:31.318Z,-4.13
2019-02-22T22:53:01.643Z,-4.14
2019-02-22T22:55:31.936Z,-4.21
2019-02-22T22:58:02.240Z,-4.23
2019-02-22T23:00:35.811Z,-4.24
2019-02-22T23:03:07.827Z,-4.32
2019-02-22T23:05:38.660Z,-4.34
2019-02-22T23:08:09.602Z,-4.40
2019-02-22T23:10:40.572Z,-4.42
2019-02-22T23:13:12.012Z,-4.48
2019-02-22T23:15:42.853Z,-4.50
2019-02-22T23:18:14.502Z,-4.48
2019-02-22T23:20:45.625Z,-4.51
2019-02-22T23:23:16.916Z,-4.54
2019-02-22T23:25:48.128Z,-4.54
2019-02-22T23:28:19.651Z,-4.55
2019-02-22T23:30:50.620Z,-4.53
2019-02-22T23:33:21.527Z,-4.57
2019-02-22T23:35:52.404Z,-4.62
2019-02-22T23:38:23.767Z,-4.60
2019-02-22T23:40:54.967Z,-4.65
2019-02-22T23:43:26.228Z,-4.73
2019-02-22T23:45:56.993Z,-4.85
2019-02-22T23:48:27.447Z,-4.91
2019-02-22T23:50:58.528Z,-4.92
2019-02-22T23:53:29.553Z,-4.90
2019-02-22T23:56:00.639Z,-4.80
2019-02-22T23:58:32.368Z,-4.77
